Akeley, MN (56433)

11:52 PM CST on February 13, 2016 (GMT -0600)
East Crooked Lake | | Change Station
CLOSE
Current Station
Personal Weather Station
Location: Nevis, MN
Elevation: 1460 ft
Nearby Weather Stations

Elev 1460 ft 47.03 °N, 94.81 °W | Updated 11 seconds ago

Overcast
Overcast
6.3 °F
Feels Like -2 °F
N
4.0
Wind Variable Wind from East
Gusts 4.9 mph

Today
High -- | Low -- °F
--% Chance of Precip.
Yesterday
High -- | Low -- °F
Precip. -- in
Pressure 30.25 in
Visibility 10.0 miles
Clouds Overcast 4000 ft
Windchill -2 °F
Dew Point -15 °F
Humidity 36%
Rainfall 0.00 in
Snow Depth Not available.
7:27 AM 5:39 PM
Waxing Crescent, 38% visible
METAR KPKD 140453Z AUTO 15013KT 10SM OVC040 M13/M22 A3013 RMK AO2 SLP244 T11331217
Pressure 30.25 in
Visibility 10.0 miles
Clouds Overcast 4000 ft
Windchill -2 °F
Dew Point -15 °F
Humidity 36%
Rainfall 0.00 in
Snow Depth Not available.
7:27 AM 5:39 PM
Waxing Crescent, 38% visible
METAR KPKD 140453Z AUTO 15013KT 10SM OVC040 M13/M22 A3013 RMK AO2 SLP244 T11331217

10-Day Weather Forecast

Almanac

Astronomy

Feb. 13, 2016 Rise Set
Actual Time
Civil Twilight
Nautical Twilight
Astronomical Twilight
Moon
Length of Visible Light
Length of Day
Tomorrow will be .
, % of the Moon is Illuminated

Today's Extremes

State Highs State Lows

Community

WunderPhotos

Upload Photos

1,892,751 photos uploaded!

WunderBlog® & News

Nearby

Air Quality

  Air Quality AQ Index Pollutant
Not available.

Snow Depth

Station Depth Elevation

Earthquake Activity

City Distance Mag. Time & Date
Minimum magnitude displayed is 2.5.

Coastal Water Temperatures

Place Temperature

Stations

Nearby Weather Stations

Station Location Temp. Windchill Dew Point Humidity Wind Precip. Elev Updated Type
                   

Watches & Warnings

There are currently no watches in effect.